Latest METARs, TAFs and NOTAMs for EGWU


---------------------------------------------------------------------------
	(OBSERVATIONS)
EGWU 180950Z 08008KT CAVOK 08/05 Q1028 BLU NOSIG=
EGWU 180920Z NIL=
EGWU 180850Z 06007KT CAVOK 07/05 Q1028 BLU NOSIG=
EGWU 180820Z NIL=
EGWU 180750Z 06008KT 9000 HZ FEW250 05/04 Q1028 BLU NOSIG=
---------------------------------------------------------------------------
	(FC)
Sorry, FC For EGWU Not Found
---------------------------------------------------------------------------
	(TERMINAL AREA FORECAST)
EGWU 180733Z 1809/1903 08012KT CAVOK
    PROB30 1819/1903 7000 HZ
    BECMG 1900/1903 BKN016=
---------------------------------------------------------------------------
	(NOTAMS)


EGWU U3503/18 THE FOLLOWING SID ARE AMENDED AS FOLLOWS DET 4X
    - AHEAD TO 3000, PASSING 900, LEFT ON OCK 010R. CONTINUE
    AS PUBLSIHED MATCH 1X - AHEAD TO 3000, PASSING 900, LEFT
    ON OCK 010R. CONTINUE AS PUBLISHED CPT 5X - AHEAD TO 3000,
    PASSING 900, LEFT ON OCK 010R. CONTINUE AS PUBLISHED BUZAD
    3X - AHEAD TO 3000, PASSING 900, LEFT ON OCK 010R. CONTINUE
    AS PUBLISHED. 10 AUG 08:01 2018 UNTIL PERM. CREATED: 10 AUG
    08:06 2018

EGWU U3676/18 CRANE. CONSTRUCTION SITE CRANE OPERATING AT PSN
    513255N 0002035W (EALING, WEST LONDON). UP TO 350FT AGL/600FT
    AMSL. FOR INFO CONTACT 07966 989256 OR 07920 389783. ON EXPIRY
    OF THIS NOTAM DETAILS WILL BE INCLUDED IN THE UK AIP ENR
    5.4 2018-10-0024/AS4. 15 OCT 00:01 2018 UNTIL 14 JAN 23:59
    2019. CREATED: 23 AUG 08:14 2018

EGWU U3795/18 PILOTS ARE TO BE AWARE OF AN AREA OF DISTURBED
    GROUND WITHIN THE RUNWAY STRIP OPPOSITE TAXIWAY ECHO (PSN:
    515519N 004252W), WHICH DOES NOT CONFORM TO REGULATORY STANDS.
    PILOTS ARE ALSO TO BE AWARE OF THE POSSIBILITY OF INCREASED
    BIRD ACTIVITY IN THAT POSITION. 30 AUG 15:15 2018 UNTIL 30
    NOV 23:59 2018. CREATED: 30 AUG 15:11 2018

EGWU U3826/16 ALL USERS OF RAF NORTHOLT MUST COMPLY WITH THE
    DEFENCE AERODROME MANUAL. 18 NOV 06:00 2016 UNTIL PERM. CREATED:
    18 NOV 06:07 2016

EGWU U3943/18 TAXIWAY DELTA ALPHA IS CLOSED TO AIRCRAFT DURING
    THE HOURS OF DARKNESS OR DURING LVP PROCEDURES. 07 SEP 10:08
    2018 UNTIL 30 NOV 23:59 2018. CREATED: 07 SEP 10:07 2018

EGWU U4087/18 AMEND DET 4Y SID TEXT. LINE ONE, LONDON CTR BDRY/BPK
    VOR R240 TO READ LONDON CTR BDRY/BPK VOR R241. AD 2 EGWU-6-4
    (13 SEP 18) REFERS. 17 SEP 14:16 2018 UNTIL PERM. CREATED:
    17 SEP 14:17 2018

EGWU U4165/18 PAR 07 MINIMA INCREASED AS FOLLOWS: CAT A 470 (350)
    TO 500 (380) CAT B 480 (360) TO 510 (390) CAT C 490 (370)
    TO 520 (400) CAT D 500 (380) TO 530 (410. 20 SEP 11:07 2018
    UNTIL 20 DEC 23:59 2018. CREATED: 20 SEP 11:12 2018

EGWU U4649/18 2 CRANES OPR AT PSN 513229N 0002814W (UXBRIDGE)
    MAX HEIGHT 207FT AGL, 362FT AMSL THE CRANES PENETRATE THE
    INNER HORIZONTAL SURFACE AND THE RWY 07 APPROACH AND RWY
    25 TAKE-OFF CLIMB SURFACES. 21 OCT 07:04 2018 UNTIL 20 DEC
    23:59 2018. CREATED: 21 OCT 07:05 2018

EGWU U4708/18 DANGEROUS AIR CARGO BAY UNAVAILABLE DUE TO GROUND
    AND LICENSING SURVEY. 12 DEC 08:00 2018 UNTIL 12 DEC 20:00
    2018. CREATED: 25 OCT 11:02 2018

EGWU U4746/18 AD CLOSED TO CIVILIAN ACFT, MIL ACFT VIA PPR ONLY.
    ATS CAT A AND B FLIGHTS EXEMPT. MON-FRI 1700-2000, SAT 0800-1500,
    SUN 1200-1900, 28 OCT 13:05 2018 UNTIL 25 NOV 19:00 2018.
    CREATED: 28 OCT 13:05 2018

EGWU U5020/18 AD CLOSED TO CIVILIAN ACFT, MIL ACFT VIA PPR ONLY,
    ATS CAT A AND B FLIGHTS EXEMPT. 21 DEC 08:00 2018 UNTIL 21
    DEC 17:00 2018. CREATED: 14 NOV 14:16 2018

EGWU U5023/18 AD CLOSED TO CIVIL ACFT, MIL VIA PPR ONLY, ATS
    CAT A AND B FLIGHTS EXEMPT. 22 DEC 08:00 2018 UNTIL 01 JAN
    20:00 2019. CREATED: 14 NOV 16:01 2018

EGWU U5087/18 REPORT OF A CRANE AT PSN 513358N 0002105W (SOUTH
    HARROW). MAX HEIGHT 293FT AGL, 501FT AMSL WI 1NM RADIUS OF
    PSN. 17 NOV 08:38 2018 UNTIL 20 NOV 23:59 2018. CREATED:
    17 NOV 08:40 2018

EGWU U5088/18 REPORT OF A CRANE AT PSN 513427N 0002758W (HAREFIELD)
    . MAX HEIGHT 92FT AGL, 270FT AMSL WI 1NM RADIUS OF PSN. 17
    NOV 08:47 2018 UNTIL 20 NOV 23:59 2018. CREATED: 17 NOV 08:47
    2018

EGWU U5089/18 REPORT OF A CRANE AT PSN 513235N 0002750W (RAF
    UXBRIDGE). MAX HEIGHT 206FT AGL, 363FT AMSL WI 1NM RADIUS
    OF PSN. 17 NOV 09:13 2018 UNTIL 15 FEB 23:59 2019. CREATED:
    17 NOV 09:11 2018

---------------------------------------------------------------------------